createdAt,value
2022-10-23T00:01:32.675Z,9.45
2022-10-23T00:04:04.820Z,9.34
2022-10-23T00:06:32.947Z,9.38
2022-10-23T00:08:59.994Z,9.27
2022-10-23T00:11:29.795Z,9.22
2022-10-23T00:13:59.752Z,9.17
2022-10-23T00:16:27.472Z,9.11
2022-10-23T00:18:55.386Z,9.01
2022-10-23T00:21:22.565Z,8.95
2022-10-23T00:23:49.358Z,8.86
2022-10-23T00:26:17.017Z,8.72
2022-10-23T00:28:44.906Z,8.65
2022-10-23T00:31:12.371Z,8.46
2022-10-23T00:33:39.264Z,8.34
2022-10-23T00:36:12.064Z,8.26
2022-10-23T00:38:39.278Z,8.15
2022-10-23T00:41:07.884Z,8.17
2022-10-23T00:43:54.312Z,8.16
2022-10-23T00:46:21.080Z,8.12
2022-10-23T00:48:47.838Z,8.06
2022-10-23T00:51:14.728Z,8.12
2022-10-23T00:53:43.474Z,8.06
2022-10-23T00:56:11.235Z,7.92
2022-10-23T00:58:38.080Z,7.88
2022-10-23T01:01:18.282Z,7.88
2022-10-23T01:03:45.922Z,7.87
2022-10-23T01:06:35.059Z,7.69
2022-10-23T01:09:26.405Z,7.61
2022-10-23T01:12:23.983Z,7.61
2022-10-23T01:15:41.802Z,7.60
2022-10-23T01:18:28.041Z,7.48
2022-10-23T01:21:06.242Z,7.58
2022-10-23T01:23:41.392Z,7.44
2022-10-23T01:26:32.530Z,7.47
2022-10-23T01:29:09.777Z,7.36
2022-10-23T01:31:48.884Z,7.44
2022-10-23T01:34:24.123Z,7.43
2022-10-23T01:36:52.948Z,7.45
2022-10-23T01:39:25.843Z,7.47
2022-10-23T01:41:57.356Z,7.54
2022-10-23T01:44:36.622Z,7.61
2022-10-23T01:47:07.458Z,7.56
2022-10-23T01:49:39.490Z,7.53
2022-10-23T01:52:10.708Z,7.49
2022-10-23T01:54:41.042Z,7.46
2022-10-23T01:57:11.206Z,7.43
2022-10-23T01:59:47.782Z,7.34
2022-10-23T02:02:16.977Z,7.33
2022-10-23T02:04:55.660Z,7.26
2022-10-23T02:07:23.116Z,7.31
2022-10-23T02:09:49.892Z,7.24
2022-10-23T02:12:45.787Z,7.14
2022-10-23T02:15:33.610Z,7.02
2022-10-23T02:18:09.914Z,6.97
2022-10-23T02:20:47.859Z,6.92
2022-10-23T02:23:29.439Z,6.87
2022-10-23T02:26:04.024Z,6.81
2022-10-23T02:28:50.141Z,6.96
2022-10-23T02:31:19.878Z,6.88
2022-10-23T02:33:56.140Z,6.80
2022-10-23T02:36:42.979Z,6.70
2022-10-23T02:39:43.799Z,6.66
2022-10-23T02:42:50.335Z,6.58
2022-10-23T02:45:52.780Z,6.56
2022-10-23T02:49:15.581Z,6.52
2022-10-23T02:52:19.027Z,6.40
2022-10-23T02:55:29.776Z,6.41
2022-10-23T02:58:04.866Z,6.38
2022-10-23T03:01:10.076Z,6.31
2022-10-23T03:03:59.373Z,6.31
2022-10-23T03:06:53.361Z,6.26
2022-10-23T03:09:40.129Z,6.24
2022-10-23T03:12:13.756Z,6.16
2022-10-23T03:14:57.148Z,6.13
2022-10-23T03:17:51.645Z,6.13
2022-10-23T03:20:41.599Z,6.05
2022-10-23T03:23:28.575Z,6.10
2022-10-23T03:26:14.060Z,6.11
2022-10-23T03:28:49.519Z,6.14
2022-10-23T03:31:35.779Z,6.07
2022-10-23T03:34:22.691Z,6.05
2022-10-23T03:37:10.336Z,6.01
2022-10-23T03:40:00.279Z,6.03
2022-10-23T03:42:59.193Z,5.98
2022-10-23T03:45:52.904Z,5.98
2022-10-23T03:48:38.213Z,5.99
2022-10-23T03:51:27.453Z,5.99
2022-10-23T03:54:25.930Z,5.98
2022-10-23T03:57:08.284Z,5.95
2022-10-23T03:59:45.072Z,5.96
2022-10-23T04:02:44.722Z,5.99
2022-10-23T04:05:32.307Z,6.01
2022-10-23T04:08:30.102Z,5.98
2022-10-23T04:11:12.087Z,6.00
2022-10-23T04:13:50.528Z,6.01
2022-10-23T04:16:36.237Z,6.02
2022-10-23T04:19:23.173Z,6.03
2022-10-23T04:22:03.443Z,6.00
2022-10-23T04:24:59.019Z,5.91
2022-10-23T04:27:35.004Z,5.93
2022-10-23T04:30:23.167Z,5.88
2022-10-23T04:33:07.966Z,5.86
2022-10-23T04:35:55.047Z,5.80
2022-10-23T04:38:43.471Z,5.80
2022-10-23T04:41:39.004Z,5.80
2022-10-23T04:44:25.779Z,5.84
2022-10-23T04:47:11.382Z,5.91
2022-10-23T04:50:06.567Z,5.86
2022-10-23T04:52:57.152Z,5.80
2022-10-23T04:55:55.571Z,5.73
2022-10-23T04:58:31.249Z,5.70
2022-10-23T05:01:27.395Z,5.67
2022-10-23T05:04:08.491Z,5.68
2022-10-23T05:06:55.134Z,5.52
2022-10-23T05:09:56.094Z,5.50
2022-10-23T05:12:49.246Z,5.47
2022-10-23T05:15:46.309Z,5.44
2022-10-23T05:18:47.853Z,5.40
2022-10-23T05:21:43.131Z,5.41
2022-10-23T05:24:46.991Z,5.43
2022-10-23T05:27:41.452Z,5.44
2022-10-23T05:30:20.365Z,5.46
2022-10-23T05:33:04.973Z,5.47
2022-10-23T05:35:52.902Z,5.51
2022-10-23T05:38:38.512Z,5.57
2022-10-23T05:41:26.750Z,5.57
2022-10-23T05:44:12.640Z,5.58
2022-10-23T05:47:07.126Z,5.68
2022-10-23T05:50:00.009Z,5.72
2022-10-23T05:52:42.735Z,5.90
2022-10-23T05:55:17.786Z,5.98
2022-10-23T05:57:47.465Z,6.04
2022-10-23T06:00:18.720Z,6.25
2022-10-23T06:03:00.066Z,6.44
2022-10-23T06:05:28.033Z,6.68
2022-10-23T06:07:59.612Z,6.98
2022-10-23T06:10:28.506Z,7.11
2022-10-23T06:12:55.462Z,7.44
2022-10-23T06:15:23.657Z,7.77
2022-10-23T06:17:50.282Z,8.07
2022-10-23T06:20:16.826Z,8.30
2022-10-23T06:22:46.122Z,8.32
2022-10-23T06:25:15.258Z,8.57
2022-10-23T06:27:41.866Z,8.47
2022-10-23T06:30:09.918Z,8.56
2022-10-23T06:32:39.101Z,8.73
2022-10-23T06:35:10.813Z,8.57
2022-10-23T06:37:39.073Z,8.77
2022-10-23T06:40:10.013Z,8.84
2022-10-23T06:42:37.591Z,8.91
2022-10-23T06:45:28.514Z,8.79
2022-10-23T06:48:03.845Z,9.17
2022-10-23T06:50:33.310Z,9.12
2022-10-23T06:53:03.981Z,9.19
2022-10-23T06:55:40.542Z,9.19
2022-10-23T06:58:10.945Z,9.19
2022-10-23T07:00:40.623Z,9.21
2022-10-23T07:03:09.636Z,9.31
2022-10-23T07:05:36.900Z,9.43
2022-10-23T07:08:06.845Z,9.58
2022-10-23T07:10:35.795Z,9.64
2022-10-23T07:13:03.963Z,9.70
2022-10-23T07:15:30.810Z,9.79
2022-10-23T07:17:59.249Z,9.88
2022-10-23T07:20:26.250Z,9.95
2022-10-23T07:22:54.583Z,9.97
2022-10-23T07:25:27.429Z,9.91
2022-10-23T07:27:55.883Z,9.89
2022-10-23T07:30:24.294Z,9.72
2022-10-23T07:32:53.164Z,9.65
2022-10-23T07:35:19.772Z,9.97
2022-10-23T07:37:46.616Z,10.16
2022-10-23T07:40:14.561Z,10.00
2022-10-23T07:42:41.578Z,10.40
2022-10-23T07:45:09.093Z,10.50
2022-10-23T07:47:35.819Z,10.59
2022-10-23T07:50:02.500Z,10.37
2022-10-23T07:52:32.056Z,10.61
2022-10-23T07:55:02.122Z,11.01
2022-10-23T07:57:28.745Z,11.17
2022-10-23T07:59:55.338Z,10.96
2022-10-23T08:02:22.071Z,10.93
2022-10-23T08:04:52.825Z,11.20
2022-10-23T08:07:19.393Z,11.45
2022-10-23T08:09:46.004Z,11.49
2022-10-23T08:12:12.618Z,11.56
2022-10-23T08:14:39.238Z,11.57
2022-10-23T08:17:09.652Z,11.69
2022-10-23T08:19:36.828Z,11.94
2022-10-23T08:22:03.935Z,11.94
2022-10-23T08:24:30.553Z,11.75
2022-10-23T08:26:57.117Z,12.02
2022-10-23T08:29:23.720Z,12.28
2022-10-23T08:31:53.857Z,12.19
2022-10-23T08:34:20.904Z,11.96
2022-10-23T08:36:47.649Z,12.03
2022-10-23T08:39:14.227Z,12.25
2022-10-23T08:41:43.273Z,12.57
2022-10-23T08:44:26.402Z,12.76
2022-10-23T08:46:59.350Z,13.01
2022-10-23T08:49:28.856Z,12.82
2022-10-23T08:52:10.349Z,12.79
2022-10-23T08:54:58.775Z,12.91
2022-10-23T08:57:38.747Z,13.27
2022-10-23T09:00:12.587Z,14.24
2022-10-23T09:02:44.005Z,13.99
2022-10-23T09:05:18.386Z,14.12
2022-10-23T09:08:20.893Z,13.43
2022-10-23T09:11:28.030Z,14.02
2022-10-23T09:14:32.182Z,14.31
2022-10-23T09:16:58.673Z,14.40
2022-10-23T09:19:28.094Z,13.81
2022-10-23T09:21:55.991Z,13.76
2022-10-23T09:24:26.524Z,13.74
2022-10-23T09:26:54.479Z,14.53
2022-10-23T09:29:30.130Z,14.53
2022-10-23T09:31:59.193Z,14.26
2022-10-23T09:34:28.453Z,14.40
2022-10-23T09:36:58.246Z,14.80
2022-10-23T09:39:33.981Z,14.75
2022-10-23T09:42:02.509Z,14.66
2022-10-23T09:44:34.125Z,14.56
2022-10-23T09:47:11.354Z,14.43
2022-10-23T09:49:46.503Z,14.48
2022-10-23T09:52:16.166Z,14.54
2022-10-23T09:54:56.920Z,14.44
2022-10-23T09:57:44.932Z,14.22
2022-10-23T10:00:14.910Z,14.69
2022-10-23T10:02:44.126Z,14.55
2022-10-23T10:05:35.903Z,14.26
2022-10-23T10:08:20.637Z,14.48
2022-10-23T10:11:20.543Z,14.76
2022-10-23T10:13:53.258Z,14.55
2022-10-23T10:16:57.526Z,14.12
2022-10-23T10:19:24.093Z,14.18
2022-10-23T10:21:59.493Z,14.80
2022-10-23T10:24:36.028Z,15.40
2022-10-23T10:27:08.978Z,15.45
2022-10-23T10:29:59.141Z,15.31
2022-10-23T10:32:25.558Z,15.33
2022-10-23T10:35:33.873Z,15.46
2022-10-23T10:38:09.505Z,16.12
2022-10-23T10:40:42.316Z,16.30
2022-10-23T10:43:18.021Z,16.08
2022-10-23T10:45:48.749Z,16.35
2022-10-23T10:48:23.437Z,16.73
2022-10-23T10:50:56.467Z,16.58
2022-10-23T10:53:44.645Z,15.86
2022-10-23T10:56:16.725Z,15.24
2022-10-23T10:58:58.157Z,15.29
2022-10-23T11:01:26.742Z,15.75
2022-10-23T11:04:35.274Z,15.50
2022-10-23T11:07:07.848Z,15.66
2022-10-23T11:09:34.538Z,16.05
2022-10-23T11:12:01.077Z,16.30
2022-10-23T11:14:33.037Z,15.45
2022-10-23T11:17:09.756Z,15.65
2022-10-23T11:19:40.188Z,15.94
2022-10-23T11:22:06.631Z,16.42
2022-10-23T11:24:57.321Z,18.19
2022-10-23T11:27:49.539Z,19.68
2022-10-23T11:30:29.891Z,20.23
2022-10-23T11:33:32.302Z,19.84
2022-10-23T11:36:19.621Z,19.66
2022-10-23T11:38:51.566Z,20.26
2022-10-23T11:41:27.034Z,22.00
2022-10-23T11:44:04.046Z,21.79
2022-10-23T11:46:37.222Z,22.50
2022-10-23T11:49:06.424Z,23.38
2022-10-23T11:51:37.229Z,22.09
2022-10-23T11:54:07.002Z,22.60
2022-10-23T11:56:34.248Z,23.36
2022-10-23T11:59:22.638Z,23.67
2022-10-23T12:01:52.099Z,22.57
2022-10-23T12:04:26.766Z,22.00
2022-10-23T12:07:00.535Z,22.18
2022-10-23T12:09:30.080Z,21.90
2022-10-23T12:12:08.249Z,21.43
2022-10-23T12:14:43.812Z,19.58
2022-10-23T12:17:22.418Z,19.27
2022-10-23T12:19:54.589Z,19.95
2022-10-23T12:22:26.150Z,19.91
2022-10-23T12:25:02.966Z,20.81
2022-10-23T12:27:39.126Z,20.36
2022-10-23T12:30:42.225Z,20.45
2022-10-23T12:33:21.308Z,20.12
2022-10-23T12:36:05.467Z,21.37
2022-10-23T12:38:35.477Z,21.08
2022-10-23T12:41:26.671Z,21.37
2022-10-23T12:43:59.962Z,20.53
2022-10-23T12:46:37.121Z,19.66
2022-10-23T12:49:12.687Z,19.89
2022-10-23T12:51:39.331Z,20.51
2022-10-23T12:54:19.656Z,19.95
2022-10-23T12:56:47.452Z,20.77
2022-10-23T12:59:18.302Z,21.59
2022-10-23T13:01:47.052Z,20.87
2022-10-23T13:04:29.271Z,19.69
2022-10-23T13:06:58.726Z,20.08
2022-10-23T13:09:38.582Z,19.79
2022-10-23T13:12:07.248Z,19.05
2022-10-23T13:14:33.742Z,18.73
2022-10-23T13:17:03.429Z,18.77
2022-10-23T13:19:30.292Z,19.09
2022-10-23T13:21:57.893Z,18.51
2022-10-23T13:24:27.696Z,18.22
2022-10-23T13:26:55.162Z,17.85
2022-10-23T13:29:29.761Z,18.26
2022-10-23T13:31:56.692Z,17.83
2022-10-23T13:34:30.709Z,17.85
2022-10-23T13:37:03.210Z,18.14
2022-10-23T13:39:34.353Z,18.08
2022-10-23T13:42:11.804Z,17.83
2022-10-23T13:44:38.709Z,17.95
2022-10-23T13:47:05.883Z,17.85
2022-10-23T13:49:32.485Z,17.89
2022-10-23T13:51:59.021Z,17.82
2022-10-23T13:57:00.308Z,17.56
2022-10-23T13:59:26.946Z,17.56
2022-10-23T14:01:53.833Z,17.49
2022-10-23T14:04:20.975Z,17.47
2022-10-23T14:06:50.398Z,17.29
2022-10-23T14:09:18.328Z,17.39
2022-10-23T14:11:45.105Z,17.52
2022-10-23T14:14:12.123Z,17.32
2022-10-23T14:16:38.855Z,17.42
2022-10-23T14:19:06.851Z,17.50
2022-10-23T14:21:33.496Z,17.48
2022-10-23T14:24:00.193Z,17.55
2022-10-23T14:26:30.295Z,17.64
2022-10-23T14:29:00.675Z,17.64
2022-10-23T14:31:31.058Z,17.56
2022-10-23T14:34:00.679Z,17.46
2022-10-23T14:36:34.449Z,17.26
2022-10-23T14:39:10.162Z,17.32
2022-10-23T14:41:37.362Z,17.23
2022-10-23T14:44:03.940Z,17.15
2022-10-23T14:46:30.543Z,17.13
2022-10-23T14:48:59.978Z,17.06
2022-10-23T14:51:30.428Z,17.02
2022-10-23T14:54:01.469Z,16.90
2022-10-23T14:56:29.868Z,16.79
2022-10-23T14:59:02.685Z,16.72
2022-10-23T15:01:35.028Z,16.66
2022-10-23T15:04:01.917Z,16.53
2022-10-23T15:06:28.514Z,16.47
2022-10-23T15:08:56.006Z,16.44
2022-10-23T15:11:26.274Z,16.39
2022-10-23T15:13:54.730Z,16.36
2022-10-23T15:16:23.070Z,16.27
2022-10-23T15:18:49.687Z,16.12
2022-10-23T15:21:16.706Z,16.16
2022-10-23T15:23:45.109Z,16.15
2022-10-23T15:26:20.180Z,16.05
2022-10-23T15:28:48.186Z,16.00
2022-10-23T15:31:30.466Z,15.86
2022-10-23T15:33:57.598Z,15.98
2022-10-23T15:36:24.221Z,15.96
2022-10-23T15:38:50.831Z,15.93
2022-10-23T15:41:22.387Z,15.95
2022-10-23T15:46:16.867Z,16.05
2022-10-23T15:48:43.409Z,15.97
2022-10-23T15:51:09.959Z,15.97
2022-10-23T15:53:36.509Z,15.93
2022-10-23T15:56:03.419Z,15.98
2022-10-23T15:58:30.034Z,15.88
2022-10-23T16:00:56.651Z,15.88
2022-10-23T16:03:23.228Z,15.77
2022-10-23T16:05:49.760Z,15.79
2022-10-23T16:08:16.370Z,15.82
2022-10-23T16:10:43.421Z,15.72
2022-10-23T16:13:10.071Z,15.72
2022-10-23T16:15:37.225Z,15.68
2022-10-23T16:18:04.551Z,15.63
2022-10-23T16:20:31.218Z,15.48
2022-10-23T16:22:57.799Z,15.52
2022-10-23T16:25:24.391Z,15.47
2022-10-23T16:27:50.949Z,15.42
2022-10-23T16:30:17.588Z,15.41
2022-10-23T16:32:44.141Z,15.40
2022-10-23T16:35:12.996Z,15.32
2022-10-23T16:37:39.811Z,15.41
2022-10-23T16:40:06.969Z,15.55
2022-10-23T16:42:33.611Z,15.59
2022-10-23T16:45:01.286Z,15.65
2022-10-23T16:47:31.204Z,15.66
2022-10-23T16:49:57.970Z,15.68
2022-10-23T16:52:24.925Z,15.73
2022-10-23T16:54:52.853Z,15.66
2022-10-23T16:57:19.679Z,15.66
2022-10-23T16:59:46.240Z,15.65
2022-10-23T17:02:13.113Z,15.66
2022-10-23T17:04:40.511Z,15.69
2022-10-23T17:07:07.228Z,15.63
2022-10-23T17:09:35.691Z,15.51
2022-10-23T17:12:02.418Z,15.50
2022-10-23T17:14:29.386Z,15.52
2022-10-23T17:16:59.328Z,15.53
2022-10-23T17:19:43.755Z,15.45
2022-10-23T17:22:12.607Z,15.45
2022-10-23T17:24:40.888Z,15.47
2022-10-23T17:27:07.739Z,15.53
2022-10-23T17:29:34.349Z,15.44
2022-10-23T17:32:01.151Z,15.51
2022-10-23T17:34:27.800Z,15.54
2022-10-23T17:36:55.416Z,15.49
2022-10-23T17:39:25.246Z,15.56
2022-10-23T17:41:52.424Z,15.54
2022-10-23T17:44:19.039Z,15.51
2022-10-23T17:46:45.603Z,15.57
2022-10-23T17:49:12.716Z,15.54
2022-10-23T17:51:40.051Z,15.49
2022-10-23T17:54:09.689Z,15.41
2022-10-23T17:56:38.369Z,15.40
2022-10-23T17:59:12.742Z,15.45
2022-10-23T18:01:39.855Z,15.47
2022-10-23T18:04:07.732Z,15.30
2022-10-23T18:06:40.200Z,15.35
2022-10-23T18:09:07.476Z,15.33
2022-10-23T18:11:37.682Z,15.30
2022-10-23T18:14:06.429Z,15.31
2022-10-23T18:16:34.862Z,15.16
2022-10-23T18:19:02.068Z,15.18
2022-10-23T18:21:28.888Z,15.17
2022-10-23T18:23:55.765Z,15.15
2022-10-23T18:26:25.902Z,15.16
2022-10-23T18:28:53.943Z,15.09
2022-10-23T18:31:21.476Z,15.11
2022-10-23T18:33:48.064Z,15.14
2022-10-23T18:36:23.044Z,15.12
2022-10-23T18:38:50.311Z,15.08
2022-10-23T18:41:18.809Z,15.09
2022-10-23T18:43:45.904Z,15.12
2022-10-23T18:46:13.946Z,15.10
2022-10-23T18:48:41.282Z,15.04
2022-10-23T18:51:20.246Z,15.12
2022-10-23T18:53:47.139Z,15.13
2022-10-23T18:56:15.519Z,15.05
2022-10-23T18:58:42.329Z,15.01
2022-10-23T19:01:09.013Z,15.00
2022-10-23T19:03:35.646Z,15.05
2022-10-23T19:06:02.296Z,14.91
2022-10-23T19:08:29.176Z,15.01
2022-10-23T19:10:57.472Z,14.98
2022-10-23T19:13:24.028Z,14.96
2022-10-23T19:15:50.706Z,15.01
2022-10-23T19:18:17.328Z,14.99
2022-10-23T19:20:44.209Z,14.90
2022-10-23T19:23:12.855Z,14.92
2022-10-23T19:25:45.529Z,14.99
2022-10-23T19:28:12.130Z,15.02
2022-10-23T19:30:39.531Z,15.06
2022-10-23T19:33:06.096Z,15.03
2022-10-23T19:35:32.628Z,14.75
2022-10-23T19:37:59.291Z,14.90
2022-10-23T19:40:26.030Z,14.89
2022-10-23T19:42:54.277Z,14.86
2022-10-23T19:45:21.061Z,14.77
2022-10-23T19:47:47.956Z,14.79
2022-10-23T19:50:15.111Z,14.71
2022-10-23T19:52:41.654Z,14.76
2022-10-23T19:55:08.999Z,14.69
2022-10-23T19:57:35.716Z,14.72
2022-10-23T20:00:04.465Z,14.69
2022-10-23T20:02:33.248Z,14.73
2022-10-23T20:04:59.933Z,14.73
2022-10-23T20:07:26.542Z,14.66
2022-10-23T20:09:54.088Z,14.59
2022-10-23T20:12:20.626Z,14.55
2022-10-23T20:14:47.163Z,14.58
2022-10-23T20:17:13.764Z,14.59
2022-10-23T20:19:40.406Z,14.57
2022-10-23T20:22:06.969Z,14.47
2022-10-23T20:24:33.671Z,14.25
2022-10-23T20:27:00.330Z,14.19
2022-10-23T20:29:26.892Z,14.34
2022-10-23T20:31:53.485Z,14.22
2022-10-23T20:34:20.203Z,14.16
2022-10-23T20:36:49.259Z,14.11
2022-10-23T20:39:19.492Z,14.02
2022-10-23T20:41:46.289Z,13.91
2022-10-23T20:46:48.121Z,13.95
2022-10-23T20:49:15.533Z,13.98
2022-10-23T20:51:45.797Z,14.05
2022-10-23T20:54:12.365Z,14.07
2022-10-23T20:56:39.788Z,14.05
2022-10-23T20:59:10.484Z,14.04
2022-10-23T21:01:40.609Z,14.03
2022-10-23T21:04:07.636Z,13.94
2022-10-23T21:06:46.179Z,13.81
2022-10-23T21:09:21.155Z,13.81
2022-10-23T21:11:47.720Z,13.65
2022-10-23T21:14:14.306Z,13.53
2022-10-23T21:16:44.427Z,13.46
2022-10-23T21:19:14.376Z,13.37
2022-10-23T21:21:41.037Z,13.38
2022-10-23T21:24:12.306Z,13.41
2022-10-23T21:26:39.011Z,13.42
2022-10-23T21:29:21.027Z,13.37
2022-10-23T21:31:56.662Z,13.54
2022-10-23T21:34:24.793Z,13.63
2022-10-23T21:37:11.985Z,13.71
2022-10-23T21:39:38.155Z,13.75
2022-10-23T21:42:04.956Z,13.85
2022-10-23T21:44:31.536Z,13.91
2022-10-23T21:46:58.117Z,13.98
2022-10-23T21:49:24.689Z,13.98
2022-10-23T21:51:51.375Z,14.03
2022-10-23T21:54:17.935Z,14.05
2022-10-23T21:56:47.155Z,14.05
2022-10-23T21:59:16.909Z,14.04
2022-10-23T22:01:45.061Z,14.02
2022-10-23T22:04:14.269Z,14.02
2022-10-23T22:06:42.547Z,14.01
2022-10-23T22:09:11.373Z,14.05
2022-10-23T22:11:38.026Z,14.04
2022-10-23T22:14:04.938Z,13.99
2022-10-23T22:16:32.049Z,13.96
2022-10-23T22:18:58.790Z,14.01
2022-10-23T22:21:28.165Z,14.04
2022-10-23T22:23:57.160Z,14.09
2022-10-23T22:26:23.743Z,14.09
2022-10-23T22:28:55.766Z,14.11
2022-10-23T22:31:26.451Z,14.03
2022-10-23T22:33:54.086Z,14.04
2022-10-23T22:36:21.396Z,13.99
2022-10-23T22:38:48.415Z,13.84
2022-10-23T22:41:15.971Z,13.86
2022-10-23T22:43:42.570Z,13.84
2022-10-23T22:46:12.358Z,13.83
2022-10-23T22:48:39.688Z,13.75
2022-10-23T22:51:09.022Z,13.76
2022-10-23T22:53:35.955Z,13.79
2022-10-23T22:56:06.798Z,13.71
2022-10-23T22:58:33.411Z,13.62
2022-10-23T23:01:44.710Z,13.59
2022-10-23T23:04:32.947Z,13.54
2022-10-23T23:06:59.155Z,13.48
2022-10-23T23:09:25.732Z,13.38
2022-10-23T23:11:52.670Z,13.37
2022-10-23T23:14:23.538Z,13.23
2022-10-23T23:16:52.751Z,13.14
2022-10-23T23:19:19.822Z,13.07
2022-10-23T23:21:46.645Z,13.07
2022-10-23T23:24:13.475Z,13.02
2022-10-23T23:26:40.718Z,12.92
2022-10-23T23:29:07.332Z,12.96
2022-10-23T23:31:33.886Z,12.96
2022-10-23T23:34:01.002Z,12.88
2022-10-23T23:36:28.166Z,12.83
2022-10-23T23:38:56.723Z,12.82
2022-10-23T23:41:24.917Z,12.74
2022-10-23T23:43:54.696Z,12.64
2022-10-23T23:46:21.311Z,12.63
2022-10-23T23:48:49.438Z,12.64
2022-10-23T23:51:18.328Z,12.58
2022-10-23T23:53:44.990Z,12.57
2022-10-23T23:56:11.592Z,12.57
2022-10-23T23:58:38.191Z,12.56
